Weather Underground PWS KCAGROVE6

PMLAA
Pine Mountain Lake Aviation Association

Home
Weather
Webcams
Pictures & Maps
Frequency & IFR
Noise Abatement
Safety Corner
PMLAA Newsletter
Manager's Approach
EAA Chapter 1337
Historical Aircraft
Surroundings
Join/Renew
Mailing list
Contact us
Email the President
Event Archive
News Archive
Picture Archive
Aviation Links

 

                              

 Hello, today is Saturday, July 30th, 2016.

Warning and Disclaimer

PMLAA and EAA Chapter 1337 assume no responsibility for the accuracy, completeness or appropriateness of the information provided above and shall not be liable for its content, or for any errors or interruptions in the transmission of data. PMLAA and EAA Chapter 1337 shall be under no obligation to correct any inaccuracies in this information and shall not be required to revise, amend or supplement same. This data is not, and is not intended to serve as a substitute for or in fulfillment of pilots' responsibilities under pertinent Federal Aviation Regulations to obtain current and appropriate weather and pre-flight briefings and airport information from FAA-approved sources.

Click on the picture below to get more data

This weather station is located off-airport and
should not be used for flight planning and navigational purpose.

 

Morning Twilight:
05:33 AM PDT
Sunrise: 06:02 AM PDT
Sunset: 08:11 PM PDT
Evening Twilight:
08:41 PM PDT

 

CURRENT MOON

 

Columbia AWOS-3 (15 nm NW)
(click here)

ADDS - METARS form results

Aviation Digital Data Service (ADDS)

Output produced by METARs form (1646 UTC 30 July 2016)
found at http://www.aviationweather.gov/adds/metars/
 
METAR text: KO22 301635Z AUTO 00000KT 10SM CLR 33/08 A2986 RMK AO1
Conditions at: KO22 (COLUMBIA , CA, US) observed 1635 UTC 30 July 2016
Temperature: 33.0°C (91°F)
Dewpoint: 8.0°C (46°F) [RH = 21%]
Pressure (altimeter): 29.86 inches Hg (1011.3 mb)
Winds: calm
Visibility: 10 or more miles (16+ km)
Ceiling: at least 12,000 feet AGL
Clouds: sky clear below 12,000 feet AGL
Weather: automated observation with no human augmentation;
there may or may not be significant weather present at this time

ADDS - METARS form results

Aviation Digital Data Service (ADDS)

Output produced by METARs form (1646 UTC 30 July 2016)
found at http://www.aviationweather.gov/adds/metars/
 
METAR text: KMER 301545Z 27005KT 10SM SKC 29/11 A2976
Conditions at: KMER (MERCED/CASTLE AF, CA, US) observed 1545 UTC 30 July 2016
Temperature: 29.0°C (84°F)
Dewpoint: 11.0°C (52°F) [RH = 33%]
Pressure (altimeter): 29.76 inches Hg (1007.9 mb)
Winds: from the W (270 degrees) at 6 MPH (5 knots; 2.6 m/s)
Visibility: 10 or more miles (16+ km)
Ceiling: at least 12,000 feet AGL
Clouds: clear skies
Weather: no significant weather observed at this time

Forecast for: KMER (MERCED/CASTLE AF, CA, US)
Text: KMER 301120Z 3012/3112 31007KT P6SM SKC
Forecast period: 1200 UTC 30 July 2016 to 1200 UTC 31 July 2016
Forecast type: FROM: standard forecast or significant change
Winds: from the NW (310 degrees) at 8 MPH (7 knots; 3.6 m/s)
Visibility: 6 or more miles (10+ km)
Clouds: clear skies
Weather: no significant weather forecast for this period

ADDS - METARS form results

Aviation Digital Data Service (ADDS)

Output produced by METARs form (1646 UTC 30 July 2016)
found at http://www.aviationweather.gov/adds/metars/
 
METAR text: KMOD 301553Z 33005KT 10SM CLR 28/09 A2975 RMK AO2 SLP075 T02780094 $
Conditions at: KMOD (MODESTO , CA, US) observed 1553 UTC 30 July 2016
Temperature: 27.8°C (82°F)
Dewpoint: 9.4°C (49°F) [RH = 32%]
Pressure (altimeter): 29.75 inches Hg (1007.5 mb)
[Sea-level pressure: 1007.5 mb]
Winds: from the NNW (330 degrees) at 6 MPH (5 knots; 2.6 m/s)
Visibility: 10 or more miles (16+ km)
Ceiling: at least 12,000 feet AGL
Clouds: sky clear below 12,000 feet AGL
Weather:
SOME DATA ABOVE MAY BE INACCURATE!!!
"$" is an indication the sensor requires maintenance

ADDS - METARS form results

Aviation Digital Data Service (ADDS)

Output produced by METARs form (1646 UTC 30 July 2016)
found at http://www.aviationweather.gov/adds/metars/
 
METAR text: KSCK 301555Z 33005KT 10SM CLR 26/13 A2976 RMK AO2 SLP078 T02560128
Conditions at: KSCK (STOCKTON , CA, US) observed 1555 UTC 30 July 2016
Temperature: 25.6°C (78°F)
Dewpoint: 12.8°C (55°F) [RH = 45%]
Pressure (altimeter): 29.76 inches Hg (1007.9 mb)
[Sea-level pressure: 1007.8 mb]
Winds: from the NNW (330 degrees) at 6 MPH (5 knots; 2.6 m/s)
Visibility: 10 or more miles (16+ km)
Ceiling: at least 12,000 feet AGL
Clouds: sky clear below 12,000 feet AGL
Weather: no significant weather observed at this time

Forecast for: KSCK (STOCKTON , CA, US)
Text: KSCK 301120Z 3012/3112 30008KT P6SM SKC
Forecast period: 1200 UTC 30 July 2016 to 1200 UTC 31 July 2016
Forecast type: FROM: standard forecast or significant change
Winds: from the WNW (300 degrees) at 9 MPH (8 knots; 4.2 m/s)
Visibility: 6 or more miles (10+ km)
Clouds: clear skies
Weather: no significant weather forecast for this period

Other Weather Resources

 

PML Webcam

Columbia Webcam

PML Weather.com

PML National Weather

Bay Area Weather.com

Bay Area National Weather

PMLAA assumes no responsibility for the accuracy, completeness or appropriateness of the information provided above and shall not be liable for its content, or for any errors or interruptions in the transmission of data. PMLAA shall be under no obligation to correct any inaccuracies in this information and shall not be required to revise, amend or supplement same. This data is not, and is not intended to serve as a substitute for or in fulfillment of pilots' responsibilities under pertinent Federal Aviation Regulations to obtain current and appropriate weather and pre-flight briefings and airport information from FAA-approved sources.

Copyright 2004, 2005, 2006, 2007, 2008. 2009, 2010 PMLAA
Last modified: 01/31/2010